Terminal Aerodrome Forecast
Issued by NWS San Angelo, TX

Home | Current Version | Previous Version | Text Only | Print | Product List | Glossary On
Versions: 1 2 3 4 5 6 7 8 9 10 11 12 13 14 15 16 17 18
000
FTUS44 KSJT 202300
TAFSJT
TAF
KSJT 202320Z 2100/2124 05006KT P6SM SCT060
     FM210500 15004KT P6SM FEW070 BKN250
     FM211800 15005KT P6SM SCT070=

USA.gov is the U.S. government's official web portal to all federal, state and local government web resources and services.